sensor_id;sensor_type;location;lat;lon;timestamp;P1;durP1;ratioP1;P2;durP2;ratioP2
22184;SDS011;11258;52.516;13.318;2023-02-28T00:01:23;5.47;;;3.00;;
22184;SDS011;11258;52.516;13.318;2023-02-28T00:03:49;6.70;;;3.63;;
22184;SDS011;11258;52.516;13.318;2023-02-28T00:06:15;4.90;;;3.17;;
22184;SDS011;11258;52.516;13.318;2023-02-28T00:08:40;5.97;;;3.33;;
22184;SDS011;11258;52.516;13.318;2023-02-28T00:11:07;6.07;;;3.43;;
22184;SDS011;11258;52.516;13.318;2023-02-28T00:13:36;5.47;;;2.97;;
22184;SDS011;11258;52.516;13.318;2023-02-28T00:16:04;5.37;;;2.90;;
22184;SDS011;11258;52.516;13.318;2023-02-28T00:18:32;4.87;;;2.47;;
22184;SDS011;11258;52.516;13.318;2023-02-28T00:20:58;5.87;;;3.13;;
22184;SDS011;11258;52.516;13.318;2023-02-28T00:23:25;5.23;;;3.10;;
22184;SDS011;11258;52.516;13.318;2023-02-28T00:25:51;8.77;;;2.77;;
22184;SDS011;11258;52.516;13.318;2023-02-28T00:28:17;6.50;;;3.23;;
22184;SDS011;11258;52.516;13.318;2023-02-28T00:30:42;5.27;;;2.80;;
22184;SDS011;11258;52.516;13.318;2023-02-28T00:33:08;6.03;;;3.23;;
22184;SDS011;11258;52.516;13.318;2023-02-28T00:35:34;5.60;;;2.70;;
22184;SDS011;11258;52.516;13.318;2023-02-28T00:38:00;5.03;;;3.10;;
22184;SDS011;11258;52.516;13.318;2023-02-28T00:40:26;6.50;;;3.07;;
22184;SDS011;11258;52.516;13.318;2023-02-28T00:42:51;4.70;;;2.90;;
22184;SDS011;11258;52.516;13.318;2023-02-28T00:45:17;5.07;;;3.07;;
22184;SDS011;11258;52.516;13.318;2023-02-28T00:47:42;5.57;;;2.53;;
22184;SDS011;11258;52.516;13.318;2023-02-28T00:50:08;5.53;;;3.07;;
22184;SDS011;11258;52.516;13.318;2023-02-28T00:52:35;5.63;;;3.73;;
22184;SDS011;11258;52.516;13.318;2023-02-28T00:55:00;6.27;;;3.00;;
22184;SDS011;11258;52.516;13.318;2023-02-28T00:57:26;6.10;;;3.43;;
22184;SDS011;11258;52.516;13.318;2023-02-28T00:59:52;4.90;;;2.60;;
22184;SDS011;11258;52.516;13.318;2023-02-28T01:02:19;8.07;;;3.27;;
22184;SDS011;11258;52.516;13.318;2023-02-28T01:04:46;5.00;;;3.10;;
22184;SDS011;11258;52.516;13.318;2023-02-28T01:07:12;8.77;;;3.17;;
22184;SDS011;11258;52.516;13.318;2023-02-28T01:09:39;6.93;;;3.30;;
22184;SDS011;11258;52.516;13.318;2023-02-28T01:12:06;7.60;;;3.20;;
22184;SDS011;11258;52.516;13.318;2023-02-28T01:14:32;5.07;;;3.20;;
22184;SDS011;11258;52.516;13.318;2023-02-28T01:16:58;7.40;;;3.20;;
22184;SDS011;11258;52.516;13.318;2023-02-28T01:19:23;7.93;;;3.10;;
22184;SDS011;11258;52.516;13.318;2023-02-28T01:21:49;7.57;;;3.30;;
22184;SDS011;11258;52.516;13.318;2023-02-28T01:24:15;6.17;;;2.97;;
22184;SDS011;11258;52.516;13.318;2023-02-28T01:26:40;5.33;;;3.10;;
22184;SDS011;11258;52.516;13.318;2023-02-28T01:29:06;5.47;;;3.10;;
22184;SDS011;11258;52.516;13.318;2023-02-28T01:31:32;5.53;;;2.97;;
22184;SDS011;11258;52.516;13.318;2023-02-28T01:33:57;5.73;;;3.10;;
22184;SDS011;11258;52.516;13.318;2023-02-28T01:36:23;4.50;;;3.13;;
22184;SDS011;11258;52.516;13.318;2023-02-28T01:38:49;7.17;;;3.20;;
22184;SDS011;11258;52.516;13.318;2023-02-28T01:41:20;5.63;;;3.37;;
22184;SDS011;11258;52.516;13.318;2023-02-28T01:46:14;6.67;;;3.80;;
22184;SDS011;11258;52.516;13.318;2023-02-28T01:48:42;6.60;;;3.40;;
22184;SDS011;11258;52.516;13.318;2023-02-28T01:51:10;5.90;;;3.20;;
22184;SDS011;11258;52.516;13.318;2023-02-28T01:53:41;7.13;;;3.67;;
22184;SDS011;11258;52.516;13.318;2023-02-28T01:56:11;6.23;;;3.20;;
22184;SDS011;11258;52.516;13.318;2023-02-28T01:58:38;8.57;;;3.37;;
22184;SDS011;11258;52.516;13.318;2023-02-28T02:01:04;7.23;;;3.63;;
22184;SDS011;11258;52.516;13.318;2023-02-28T02:03:30;6.87;;;3.53;;
22184;SDS011;11258;52.516;13.318;2023-02-28T02:05:56;5.30;;;3.27;;
22184;SDS011;11258;52.516;13.318;2023-02-28T02:08:23;7.17;;;3.57;;
22184;SDS011;11258;52.516;13.318;2023-02-28T02:10:52;3.70;;;3.00;;
22184;SDS011;11258;52.516;13.318;2023-02-28T02:19:01;7.67;;;3.10;;
22184;SDS011;11258;52.516;13.318;2023-02-28T02:24:58;6.70;;;3.43;;
22184;SDS011;11258;52.516;13.318;2023-02-28T02:38:44;7.03;;;4.00;;
22184;SDS011;11258;52.516;13.318;2023-02-28T02:41:33;8.97;;;3.60;;
22184;SDS011;11258;52.516;13.318;2023-02-28T02:46:43;6.13;;;3.90;;
22184;SDS011;11258;52.516;13.318;2023-02-28T02:49:13;7.30;;;3.93;;
22184;SDS011;11258;52.516;13.318;2023-02-28T02:51:44;5.70;;;3.87;;
22184;SDS011;11258;52.516;13.318;2023-02-28T02:54:26;7.30;;;4.37;;
22184;SDS011;11258;52.516;13.318;2023-02-28T02:56:54;7.93;;;4.30;;
22184;SDS011;11258;52.516;13.318;2023-02-28T02:59:23;6.70;;;4.00;;
22184;SDS011;11258;52.516;13.318;2023-02-28T03:01:54;7.77;;;4.17;;
22184;SDS011;11258;52.516;13.318;2023-02-28T03:04:25;7.53;;;3.87;;
22184;SDS011;11258;52.516;13.318;2023-02-28T03:06:56;7.07;;;3.70;;
22184;SDS011;11258;52.516;13.318;2023-02-28T03:09:22;8.07;;;4.37;;
22184;SDS011;11258;52.516;13.318;2023-02-28T03:11:48;7.07;;;3.90;;
22184;SDS011;11258;52.516;13.318;2023-02-28T03:14:19;11.03;;;4.00;;
22184;SDS011;11258;52.516;13.318;2023-02-28T03:16:58;8.63;;;4.50;;
22184;SDS011;11258;52.516;13.318;2023-02-28T03:22:49;7.83;;;4.13;;
22184;SDS011;11258;52.516;13.318;2023-02-28T03:25:40;7.50;;;3.93;;
22184;SDS011;11258;52.516;13.318;2023-02-28T03:33:32;9.87;;;4.27;;
22184;SDS011;11258;52.516;13.318;2023-02-28T03:36:06;7.87;;;4.17;;
22184;SDS011;11258;52.516;13.318;2023-02-28T03:38:47;8.50;;;3.93;;
22184;SDS011;11258;52.516;13.318;2023-02-28T03:41:19;9.10;;;4.07;;
22184;SDS011;11258;52.516;13.318;2023-02-28T03:44:15;6.60;;;3.57;;
22184;SDS011;11258;52.516;13.318;2023-02-28T03:46:42;13.70;;;4.43;;
22184;SDS011;11258;52.516;13.318;2023-02-28T03:49:32;9.43;;;3.93;;
22184;SDS011;11258;52.516;13.318;2023-02-28T03:52:05;6.87;;;4.00;;
22184;SDS011;11258;52.516;13.318;2023-02-28T03:54:33;11.23;;;4.77;;
22184;SDS011;11258;52.516;13.318;2023-02-28T03:57:10;7.30;;;4.00;;
22184;SDS011;11258;52.516;13.318;2023-02-28T04:00:27;7.90;;;3.90;;
22184;SDS011;11258;52.516;13.318;2023-02-28T04:02:45;7.93;;;4.30;;
22184;SDS011;11258;52.516;13.318;2023-02-28T04:05:17;7.53;;;3.87;;
22184;SDS011;11258;52.516;13.318;2023-02-28T04:07:44;7.83;;;3.73;;
22184;SDS011;11258;52.516;13.318;2023-02-28T04:10:10;8.83;;;4.43;;
22184;SDS011;11258;52.516;13.318;2023-02-28T04:12:37;7.93;;;4.10;;
22184;SDS011;11258;52.516;13.318;2023-02-28T04:15:03;6.43;;;3.80;;
22184;SDS011;11258;52.516;13.318;2023-02-28T04:17:29;7.27;;;4.47;;
22184;SDS011;11258;52.516;13.318;2023-02-28T04:19:55;7.70;;;4.73;;
22184;SDS011;11258;52.516;13.318;2023-02-28T04:22:22;7.77;;;4.63;;
22184;SDS011;11258;52.516;13.318;2023-02-28T04:24:50;7.50;;;4.37;;
22184;SDS011;11258;52.516;13.318;2023-02-28T04:27:18;7.57;;;4.80;;
22184;SDS011;11258;52.516;13.318;2023-02-28T04:29:44;10.90;;;4.63;;
22184;SDS011;11258;52.516;13.318;2023-02-28T04:32:10;9.67;;;4.60;;
22184;SDS011;11258;52.516;13.318;2023-02-28T04:34:36;8.67;;;4.30;;
22184;SDS011;11258;52.516;13.318;2023-02-28T04:37:02;7.97;;;4.90;;
22184;SDS011;11258;52.516;13.318;2023-02-28T04:39:28;7.70;;;3.80;;
22184;SDS011;11258;52.516;13.318;2023-02-28T04:41:54;9.03;;;4.27;;
22184;SDS011;11258;52.516;13.318;2023-02-28T04:44:21;7.73;;;4.20;;
22184;SDS011;11258;52.516;13.318;2023-02-28T04:46:47;7.47;;;4.00;;
22184;SDS011;11258;52.516;13.318;2023-02-28T04:49:14;6.77;;;4.00;;
22184;SDS011;11258;52.516;13.318;2023-02-28T04:51:40;7.40;;;4.50;;
22184;SDS011;11258;52.516;13.318;2023-02-28T04:54:06;9.95;;;5.10;;
22184;SDS011;11258;52.516;13.318;2023-02-28T04:56:32;7.67;;;4.17;;
22184;SDS011;11258;52.516;13.318;2023-02-28T04:58:58;10.03;;;4.87;;
22184;SDS011;11258;52.516;13.318;2023-02-28T05:01:24;5.57;;;3.90;;
22184;SDS011;11258;52.516;13.318;2023-02-28T05:03:53;6.67;;;4.40;;
22184;SDS011;11258;52.516;13.318;2023-02-28T05:06:22;9.90;;;4.87;;
22184;SDS011;11258;52.516;13.318;2023-02-28T05:08:49;8.43;;;4.33;;
22184;SDS011;11258;52.516;13.318;2023-02-28T05:11:18;9.90;;;4.53;;
22184;SDS011;11258;52.516;13.318;2023-02-28T05:13:45;8.03;;;5.07;;
22184;SDS011;11258;52.516;13.318;2023-02-28T05:16:11;6.07;;;3.93;;
22184;SDS011;11258;52.516;13.318;2023-02-28T05:18:37;7.57;;;4.50;;
22184;SDS011;11258;52.516;13.318;2023-02-28T05:21:03;7.03;;;4.50;;
22184;SDS011;11258;52.516;13.318;2023-02-28T05:23:29;6.93;;;4.17;;
22184;SDS011;11258;52.516;13.318;2023-02-28T05:25:55;8.13;;;4.73;;
22184;SDS011;11258;52.516;13.318;2023-02-28T05:28:21;8.73;;;4.60;;
22184;SDS011;11258;52.516;13.318;2023-02-28T05:30:47;9.97;;;5.40;;
22184;SDS011;11258;52.516;13.318;2023-02-28T05:33:12;8.27;;;4.80;;
22184;SDS011;11258;52.516;13.318;2023-02-28T05:35:39;11.93;;;5.40;;
22184;SDS011;11258;52.516;13.318;2023-02-28T05:38:05;9.80;;;5.07;;
22184;SDS011;11258;52.516;13.318;2023-02-28T05:40:31;6.53;;;4.07;;
22184;SDS011;11258;52.516;13.318;2023-02-28T05:42:57;8.97;;;4.37;;
22184;SDS011;11258;52.516;13.318;2023-02-28T05:45:22;7.73;;;4.80;;
22184;SDS011;11258;52.516;13.318;2023-02-28T05:47:48;9.67;;;4.70;;
22184;SDS011;11258;52.516;13.318;2023-02-28T05:50:14;10.47;;;4.17;;
22184;SDS011;11258;52.516;13.318;2023-02-28T05:52:39;8.57;;;4.40;;
22184;SDS011;11258;52.516;13.318;2023-02-28T05:55:05;8.57;;;4.73;;
22184;SDS011;11258;52.516;13.318;2023-02-28T05:57:31;8.27;;;4.10;;
22184;SDS011;11258;52.516;13.318;2023-02-28T05:59:57;9.80;;;4.30;;
22184;SDS011;11258;52.516;13.318;2023-02-28T06:02:23;7.13;;;4.57;;
22184;SDS011;11258;52.516;13.318;2023-02-28T06:04:48;9.57;;;4.80;;
22184;SDS011;11258;52.516;13.318;2023-02-28T06:07:14;7.80;;;4.37;;
22184;SDS011;11258;52.516;13.318;2023-02-28T06:09:41;6.73;;;4.40;;
22184;SDS011;11258;52.516;13.318;2023-02-28T06:12:07;6.87;;;4.17;;
22184;SDS011;11258;52.516;13.318;2023-02-28T06:14:34;9.33;;;4.50;;
22184;SDS011;11258;52.516;13.318;2023-02-28T06:17:01;9.37;;;5.27;;
22184;SDS011;11258;52.516;13.318;2023-02-28T06:19:27;8.67;;;4.57;;
22184;SDS011;11258;52.516;13.318;2023-02-28T06:21:55;9.70;;;4.93;;
22184;SDS011;11258;52.516;13.318;2023-02-28T06:24:22;6.30;;;4.20;;
22184;SDS011;11258;52.516;13.318;2023-02-28T06:26:48;9.23;;;4.73;;
22184;SDS011;11258;52.516;13.318;2023-02-28T06:29:14;7.37;;;4.47;;
22184;SDS011;11258;52.516;13.318;2023-02-28T06:31:42;10.97;;;4.70;;
22184;SDS011;11258;52.516;13.318;2023-02-28T06:34:08;6.77;;;3.90;;
22184;SDS011;11258;52.516;13.318;2023-02-28T06:36:36;8.27;;;4.57;;
22184;SDS011;11258;52.516;13.318;2023-02-28T06:39:05;7.77;;;4.80;;
22184;SDS011;11258;52.516;13.318;2023-02-28T06:41:32;9.03;;;4.37;;
22184;SDS011;11258;52.516;13.318;2023-02-28T06:44:02;7.90;;;5.07;;
22184;SDS011;11258;52.516;13.318;2023-02-28T06:46:30;7.27;;;4.50;;
22184;SDS011;11258;52.516;13.318;2023-02-28T06:48:56;7.47;;;4.70;;
22184;SDS011;11258;52.516;13.318;2023-02-28T06:51:22;15.47;;;5.23;;
22184;SDS011;11258;52.516;13.318;2023-02-28T06:53:49;7.95;;;4.82;;
22184;SDS011;11258;52.516;13.318;2023-02-28T06:56:16;7.60;;;5.70;;
22184;SDS011;11258;52.516;13.318;2023-02-28T06:58:45;9.63;;;5.85;;
22184;SDS011;11258;52.516;13.318;2023-02-28T07:01:13;9.15;;;5.60;;
22184;SDS011;11258;52.516;13.318;2023-02-28T07:03:39;11.07;;;5.97;;
22184;SDS011;11258;52.516;13.318;2023-02-28T07:06:05;13.77;;;5.88;;
22184;SDS011;11258;52.516;13.318;2023-02-28T07:08:32;15.25;;;6.18;;
22184;SDS011;11258;52.516;13.318;2023-02-28T07:10:58;8.35;;;5.60;;
22184;SDS011;11258;52.516;13.318;2023-02-28T07:13:24;12.05;;;6.18;;
22184;SDS011;11258;52.516;13.318;2023-02-28T07:15:56;8.82;;;6.25;;
22184;SDS011;11258;52.516;13.318;2023-02-28T07:18:27;11.68;;;6.53;;
22184;SDS011;11258;52.516;13.318;2023-02-28T07:20:53;10.70;;;6.47;;
22184;SDS011;11258;52.516;13.318;2023-02-28T07:23:19;9.32;;;5.93;;
22184;SDS011;11258;52.516;13.318;2023-02-28T07:25:45;11.45;;;7.30;;
22184;SDS011;11258;52.516;13.318;2023-02-28T07:28:11;11.32;;;7.32;;
22184;SDS011;11258;52.516;13.318;2023-02-28T07:30:38;11.32;;;9.13;;
22184;SDS011;11258;52.516;13.318;2023-02-28T07:33:03;17.38;;;10.90;;
22184;SDS011;11258;52.516;13.318;2023-02-28T07:35:29;9.77;;;7.85;;
22184;SDS011;11258;52.516;13.318;2023-02-28T07:37:57;14.68;;;10.20;;
22184;SDS011;11258;52.516;13.318;2023-02-28T07:40:23;16.23;;;9.63;;
22184;SDS011;11258;52.516;13.318;2023-02-28T07:42:50;13.50;;;9.80;;
22184;SDS011;11258;52.516;13.318;2023-02-28T07:45:16;13.82;;;9.82;;
22184;SDS011;11258;52.516;13.318;2023-02-28T07:47:42;10.90;;;7.38;;
22184;SDS011;11258;52.516;13.318;2023-02-28T07:50:09;8.95;;;5.25;;
22184;SDS011;11258;52.516;13.318;2023-02-28T07:52:36;5.03;;;3.00;;
22184;SDS011;11258;52.516;13.318;2023-02-28T07:55:03;5.75;;;2.75;;
22184;SDS011;11258;52.516;13.318;2023-02-28T07:57:30;4.30;;;2.80;;
22184;SDS011;11258;52.516;13.318;2023-02-28T07:59:56;4.43;;;2.75;;
22184;SDS011;11258;52.516;13.318;2023-02-28T08:02:22;4.13;;;2.60;;
22184;SDS011;11258;52.516;13.318;2023-02-28T08:04:48;5.82;;;3.05;;
22184;SDS011;11258;52.516;13.318;2023-02-28T08:07:14;5.28;;;2.92;;
22184;SDS011;11258;52.516;13.318;2023-02-28T08:09:41;8.32;;;2.95;;
22184;SDS011;11258;52.516;13.318;2023-02-28T08:12:07;5.70;;;2.33;;
22184;SDS011;11258;52.516;13.318;2023-02-28T08:14:33;4.60;;;2.40;;
22184;SDS011;11258;52.516;13.318;2023-02-28T08:16:59;5.13;;;2.42;;
22184;SDS011;11258;52.516;13.318;2023-02-28T08:19:25;4.85;;;2.75;;
22184;SDS011;11258;52.516;13.318;2023-02-28T08:21:50;5.97;;;2.90;;
22184;SDS011;11258;52.516;13.318;2023-02-28T08:24:16;3.38;;;2.60;;
22184;SDS011;11258;52.516;13.318;2023-02-28T08:26:42;3.35;;;2.45;;
22184;SDS011;11258;52.516;13.318;2023-02-28T08:29:07;3.60;;;1.98;;
22184;SDS011;11258;52.516;13.318;2023-02-28T08:31:33;3.30;;;2.07;;
22184;SDS011;11258;52.516;13.318;2023-02-28T08:34:00;5.00;;;2.27;;
22184;SDS011;11258;52.516;13.318;2023-02-28T08:36:33;4.63;;;2.60;;
22184;SDS011;11258;52.516;13.318;2023-02-28T08:38:59;6.03;;;2.40;;
22184;SDS011;11258;52.516;13.318;2023-02-28T08:41:26;4.90;;;2.10;;
22184;SDS011;11258;52.516;13.318;2023-02-28T08:43:51;4.10;;;2.37;;
22184;SDS011;11258;52.516;13.318;2023-02-28T08:46:18;4.13;;;2.47;;
22184;SDS011;11258;52.516;13.318;2023-02-28T08:48:45;4.60;;;2.10;;
22184;SDS011;11258;52.516;13.318;2023-02-28T08:51:12;3.97;;;2.40;;
22184;SDS011;11258;52.516;13.318;2023-02-28T08:53:41;4.87;;;1.67;;
22184;SDS011;11258;52.516;13.318;2023-02-28T08:56:08;6.73;;;2.47;;
22184;SDS011;11258;52.516;13.318;2023-02-28T08:58:36;2.87;;;1.30;;
22184;SDS011;11258;52.516;13.318;2023-02-28T09:01:09;3.53;;;1.50;;
22184;SDS011;11258;52.516;13.318;2023-02-28T09:03:37;2.97;;;1.90;;
22184;SDS011;11258;52.516;13.318;2023-02-28T09:06:04;3.43;;;1.60;;
22184;SDS011;11258;52.516;13.318;2023-02-28T09:08:30;2.97;;;1.70;;
22184;SDS011;11258;52.516;13.318;2023-02-28T09:10:56;3.57;;;2.00;;
22184;SDS011;11258;52.516;13.318;2023-02-28T09:13:23;4.00;;;2.03;;
22184;SDS011;11258;52.516;13.318;2023-02-28T09:15:49;4.13;;;1.83;;
22184;SDS011;11258;52.516;13.318;2023-02-28T09:18:15;3.63;;;1.83;;
22184;SDS011;11258;52.516;13.318;2023-02-28T09:20:42;3.37;;;1.67;;
22184;SDS011;11258;52.516;13.318;2023-02-28T09:23:08;3.13;;;1.53;;
22184;SDS011;11258;52.516;13.318;2023-02-28T09:25:35;2.80;;;1.70;;
22184;SDS011;11258;52.516;13.318;2023-02-28T09:28:01;6.47;;;2.87;;
22184;SDS011;11258;52.516;13.318;2023-02-28T09:30:28;2.80;;;1.50;;
22184;SDS011;11258;52.516;13.318;2023-02-28T09:32:54;2.93;;;1.43;;
22184;SDS011;11258;52.516;13.318;2023-02-28T09:35:20;7.40;;;2.00;;
22184;SDS011;11258;52.516;13.318;2023-02-28T09:37:50;2.97;;;1.70;;
22184;SDS011;11258;52.516;13.318;2023-02-28T09:40:20;5.70;;;1.97;;
22184;SDS011;11258;52.516;13.318;2023-02-28T09:42:49;3.63;;;2.17;;
22184;SDS011;11258;52.516;13.318;2023-02-28T09:45:28;3.23;;;1.60;;
22184;SDS011;11258;52.516;13.318;2023-02-28T09:47:58;3.90;;;1.80;;
22184;SDS011;11258;52.516;13.318;2023-02-28T09:53:15;3.67;;;1.50;;
22184;SDS011;11258;52.516;13.318;2023-02-28T09:55:46;3.10;;;1.57;;
22184;SDS011;11258;52.516;13.318;2023-02-28T09:58:21;4.13;;;1.40;;
22184;SDS011;11258;52.516;13.318;2023-02-28T10:01:00;3.50;;;1.70;;
22184;SDS011;11258;52.516;13.318;2023-02-28T10:03:47;2.53;;;1.57;;
22184;SDS011;11258;52.516;13.318;2023-02-28T10:06:20;4.97;;;1.93;;
22184;SDS011;11258;52.516;13.318;2023-02-28T10:11:50;4.47;;;1.90;;
22184;SDS011;11258;52.516;13.318;2023-02-28T10:14:18;2.30;;;1.67;;
22184;SDS011;11258;52.516;13.318;2023-02-28T10:16:59;2.93;;;1.80;;
22184;SDS011;11258;52.516;13.318;2023-02-28T10:22:14;6.73;;;2.37;;
22184;SDS011;11258;52.516;13.318;2023-02-28T10:24:50;5.77;;;2.10;;
22184;SDS011;11258;52.516;13.318;2023-02-28T10:29:44;4.57;;;1.50;;
22184;SDS011;11258;52.516;13.318;2023-02-28T10:32:21;4.17;;;2.10;;
22184;SDS011;11258;52.516;13.318;2023-02-28T10:34:53;4.27;;;2.10;;
22184;SDS011;11258;52.516;13.318;2023-02-28T10:37:25;3.07;;;2.20;;
22184;SDS011;11258;52.516;13.318;2023-02-28T10:39:52;3.57;;;1.90;;
22184;SDS011;11258;52.516;13.318;2023-02-28T10:42:19;3.40;;;2.23;;
22184;SDS011;11258;52.516;13.318;2023-02-28T10:44:44;3.80;;;1.93;;
22184;SDS011;11258;52.516;13.318;2023-02-28T10:47:14;5.60;;;2.03;;
22184;SDS011;11258;52.516;13.318;2023-02-28T10:49:46;3.93;;;1.80;;
22184;SDS011;11258;52.516;13.318;2023-02-28T10:52:14;3.67;;;2.07;;
22184;SDS011;11258;52.516;13.318;2023-02-28T10:55:14;3.77;;;1.83;;
22184;SDS011;11258;52.516;13.318;2023-02-28T10:57:46;2.67;;;1.87;;
22184;SDS011;11258;52.516;13.318;2023-02-28T11:00:17;7.07;;;2.07;;
22184;SDS011;11258;52.516;13.318;2023-02-28T11:02:43;8.83;;;2.83;;
22184;SDS011;11258;52.516;13.318;2023-02-28T11:08:12;3.33;;;2.00;;
22184;SDS011;11258;52.516;13.318;2023-02-28T11:10:44;5.47;;;2.67;;
22184;SDS011;11258;52.516;13.318;2023-02-28T11:13:19;5.37;;;2.13;;
22184;SDS011;11258;52.516;13.318;2023-02-28T11:15:54;3.73;;;2.20;;
22184;SDS011;11258;52.516;13.318;2023-02-28T11:21:05;5.43;;;1.80;;
22184;SDS011;11258;52.516;13.318;2023-02-28T11:23:32;5.40;;;2.50;;
22184;SDS011;11258;52.516;13.318;2023-02-28T11:26:01;3.17;;;1.77;;
22184;SDS011;11258;52.516;13.318;2023-02-28T11:28:34;6.77;;;2.10;;
22184;SDS011;11258;52.516;13.318;2023-02-28T11:33:45;4.43;;;2.10;;
22184;SDS011;11258;52.516;13.318;2023-02-28T11:38:42;4.27;;;2.27;;
22184;SDS011;11258;52.516;13.318;2023-02-28T11:46:47;6.83;;;2.93;;
22184;SDS011;11258;52.516;13.318;2023-02-28T11:49:41;4.43;;;2.03;;
22184;SDS011;11258;52.516;13.318;2023-02-28T11:54:47;6.47;;;2.23;;
22184;SDS011;11258;52.516;13.318;2023-02-28T11:57:35;6.20;;;2.80;;
22184;SDS011;11258;52.516;13.318;2023-02-28T12:03:01;7.13;;;2.10;;
22184;SDS011;11258;52.516;13.318;2023-02-28T12:05:42;4.00;;;2.33;;
22184;SDS011;11258;52.516;13.318;2023-02-28T12:19:23;5.00;;;2.00;;
22184;SDS011;11258;52.516;13.318;2023-02-28T12:27:33;7.50;;;3.43;;
22184;SDS011;11258;52.516;13.318;2023-02-28T12:30:28;5.40;;;3.07;;
22184;SDS011;11258;52.516;13.318;2023-02-28T12:33:02;6.47;;;2.97;;
22184;SDS011;11258;52.516;13.318;2023-02-28T12:35:32;4.90;;;2.60;;
22184;SDS011;11258;52.516;13.318;2023-02-28T12:38:04;4.83;;;2.80;;
22184;SDS011;11258;52.516;13.318;2023-02-28T12:40:45;3.77;;;2.63;;
22184;SDS011;11258;52.516;13.318;2023-02-28T12:43:15;5.00;;;3.07;;
22184;SDS011;11258;52.516;13.318;2023-02-28T12:48:31;6.47;;;2.90;;
22184;SDS011;11258;52.516;13.318;2023-02-28T12:51:07;8.63;;;2.80;;
22184;SDS011;11258;52.516;13.318;2023-02-28T12:59:23;5.90;;;3.00;;
22184;SDS011;11258;52.516;13.318;2023-02-28T13:07:50;5.50;;;2.40;;
22184;SDS011;11258;52.516;13.318;2023-02-28T13:09:56;4.80;;;2.60;;
22184;SDS011;11258;52.516;13.318;2023-02-28T13:12:24;4.43;;;2.60;;
22184;SDS011;11258;52.516;13.318;2023-02-28T13:14:51;7.20;;;3.83;;
22184;SDS011;11258;52.516;13.318;2023-02-28T13:17:29;7.10;;;4.17;;
22184;SDS011;11258;52.516;13.318;2023-02-28T13:19:56;5.23;;;2.87;;
22184;SDS011;11258;52.516;13.318;2023-02-28T13:27:47;7.10;;;4.17;;
22184;SDS011;11258;52.516;13.318;2023-02-28T13:36:01;7.17;;;3.30;;
22184;SDS011;11258;52.516;13.318;2023-02-28T13:38:44;8.57;;;4.50;;
22184;SDS011;11258;52.516;13.318;2023-02-28T13:44:12;8.47;;;3.80;;
22184;SDS011;11258;52.516;13.318;2023-02-28T13:55:22;4.90;;;3.00;;
22184;SDS011;11258;52.516;13.318;2023-02-28T14:11:27;5.93;;;2.70;;
22184;SDS011;11258;52.516;13.318;2023-02-28T14:13:56;6.20;;;2.80;;
22184;SDS011;11258;52.516;13.318;2023-02-28T14:16:26;4.17;;;2.67;;
22184;SDS011;11258;52.516;13.318;2023-02-28T14:19:02;3.33;;;2.50;;
22184;SDS011;11258;52.516;13.318;2023-02-28T14:21:35;3.93;;;2.70;;
22184;SDS011;11258;52.516;13.318;2023-02-28T14:32:35;8.13;;;3.03;;
22184;SDS011;11258;52.516;13.318;2023-02-28T14:37:52;4.93;;;2.97;;
22184;SDS011;11258;52.516;13.318;2023-02-28T14:40:21;5.67;;;3.57;;
22184;SDS011;11258;52.516;13.318;2023-02-28T14:42:54;5.70;;;2.90;;
22184;SDS011;11258;52.516;13.318;2023-02-28T14:45:22;5.17;;;2.87;;
22184;SDS011;11258;52.516;13.318;2023-02-28T14:47:51;5.03;;;3.30;;
22184;SDS011;11258;52.516;13.318;2023-02-28T14:50:21;4.27;;;2.50;;
22184;SDS011;11258;52.516;13.318;2023-02-28T14:52:58;7.23;;;4.07;;
22184;SDS011;11258;52.516;13.318;2023-02-28T14:55:28;4.63;;;2.77;;
22184;SDS011;11258;52.516;13.318;2023-02-28T14:57:57;4.77;;;2.90;;
22184;SDS011;11258;52.516;13.318;2023-02-28T15:00:35;5.60;;;2.80;;
22184;SDS011;11258;52.516;13.318;2023-02-28T15:03:21;5.63;;;2.60;;
22184;SDS011;11258;52.516;13.318;2023-02-28T15:05:56;3.60;;;2.23;;
22184;SDS011;11258;52.516;13.318;2023-02-28T15:08:27;4.93;;;2.40;;
22184;SDS011;11258;52.516;13.318;2023-02-28T15:13:19;6.20;;;3.10;;
22184;SDS011;11258;52.516;13.318;2023-02-28T15:21:17;4.17;;;2.60;;
22184;SDS011;11258;52.516;13.318;2023-02-28T15:23:46;7.17;;;3.60;;
22184;SDS011;11258;52.516;13.318;2023-02-28T15:26:25;7.50;;;2.80;;
22184;SDS011;11258;52.516;13.318;2023-02-28T15:28:58;8.47;;;3.73;;
22184;SDS011;11258;52.516;13.318;2023-02-28T15:31:27;4.17;;;2.80;;
22184;SDS011;11258;52.516;13.318;2023-02-28T15:33:56;3.93;;;2.87;;
22184;SDS011;11258;52.516;13.318;2023-02-28T15:36:29;3.33;;;2.23;;
22184;SDS011;11258;52.516;13.318;2023-02-28T15:38:58;5.90;;;2.87;;
22184;SDS011;11258;52.516;13.318;2023-02-28T15:41:25;4.10;;;2.43;;
22184;SDS011;11258;52.516;13.318;2023-02-28T15:49:32;4.70;;;2.73;;
22184;SDS011;11258;52.516;13.318;2023-02-28T15:52:33;4.43;;;2.70;;
22184;SDS011;11258;52.516;13.318;2023-02-28T15:57:38;4.70;;;2.73;;
22184;SDS011;11258;52.516;13.318;2023-02-28T16:00:06;4.40;;;2.57;;
22184;SDS011;11258;52.516;13.318;2023-02-28T16:02:37;4.80;;;2.83;;
22184;SDS011;11258;52.516;13.318;2023-02-28T16:07:33;4.47;;;2.97;;
22184;SDS011;11258;52.516;13.318;2023-02-28T16:10:00;3.87;;;2.83;;
22184;SDS011;11258;52.516;13.318;2023-02-28T16:12:30;6.13;;;2.77;;
22184;SDS011;11258;52.516;13.318;2023-02-28T16:14:59;4.40;;;2.67;;
22184;SDS011;11258;52.516;13.318;2023-02-28T16:17:28;5.37;;;3.00;;
22184;SDS011;11258;52.516;13.318;2023-02-28T16:19:57;6.50;;;3.63;;
22184;SDS011;11258;52.516;13.318;2023-02-28T16:22:23;6.80;;;3.47;;
22184;SDS011;11258;52.516;13.318;2023-02-28T16:24:49;5.83;;;2.80;;
22184;SDS011;11258;52.516;13.318;2023-02-28T16:27:20;7.27;;;3.30;;
22184;SDS011;11258;52.516;13.318;2023-02-28T16:29:50;6.17;;;3.50;;
22184;SDS011;11258;52.516;13.318;2023-02-28T16:32:15;5.53;;;3.13;;
22184;SDS011;11258;52.516;13.318;2023-02-28T16:34:44;6.97;;;3.20;;
22184;SDS011;11258;52.516;13.318;2023-02-28T16:37:13;11.40;;;3.93;;
22184;SDS011;11258;52.516;13.318;2023-02-28T16:39:41;5.40;;;3.00;;
22184;SDS011;11258;52.516;13.318;2023-02-28T16:42:10;5.27;;;3.50;;
22184;SDS011;11258;52.516;13.318;2023-02-28T16:44:41;5.37;;;3.10;;
22184;SDS011;11258;52.516;13.318;2023-02-28T16:47:08;8.07;;;3.27;;
22184;SDS011;11258;52.516;13.318;2023-02-28T16:49:35;8.57;;;3.63;;
22184;SDS011;11258;52.516;13.318;2023-02-28T16:52:01;4.67;;;3.33;;
22184;SDS011;11258;52.516;13.318;2023-02-28T16:54:27;6.80;;;3.30;;
22184;SDS011;11258;52.516;13.318;2023-02-28T16:56:53;7.17;;;3.63;;
22184;SDS011;11258;52.516;13.318;2023-02-28T16:59:21;5.93;;;3.57;;
22184;SDS011;11258;52.516;13.318;2023-02-28T17:01:49;5.57;;;3.60;;
22184;SDS011;11258;52.516;13.318;2023-02-28T17:04:15;9.97;;;3.77;;
22184;SDS011;11258;52.516;13.318;2023-02-28T17:06:41;6.93;;;3.60;;
22184;SDS011;11258;52.516;13.318;2023-02-28T17:09:14;5.57;;;3.40;;
22184;SDS011;11258;52.516;13.318;2023-02-28T17:11:42;6.23;;;3.87;;
22184;SDS011;11258;52.516;13.318;2023-02-28T17:14:08;6.20;;;3.57;;
22184;SDS011;11258;52.516;13.318;2023-02-28T17:16:34;7.10;;;4.03;;
22184;SDS011;11258;52.516;13.318;2023-02-28T17:19:04;7.10;;;3.03;;
22184;SDS011;11258;52.516;13.318;2023-02-28T17:21:31;7.70;;;3.73;;
22184;SDS011;11258;52.516;13.318;2023-02-28T17:23:58;5.63;;;3.33;;
22184;SDS011;11258;52.516;13.318;2023-02-28T17:26:24;4.17;;;2.83;;
22184;SDS011;11258;52.516;13.318;2023-02-28T17:28:50;4.40;;;2.70;;